Norwegian Crown — C6II4 — position and weather

sailwx.info

Track history (hours):
 
Tides and Currents Weather Stations Pressure Air Temp Water Temp Dewpoint Dewpoint Depression Visibility Wind Speed Wind Dir Waves Ship Positions

Norwegian Crown

Operator: Norwegian Cruise Line

Last reported at 2015-Feb-22 22:25 UTC. Time now 2015-Feb-27 13:15 UTC.
Position N 09°53' E 123°40'.

Type: Passenger vessel. MMSI: 308785000.

Date/timePositionNaut miles runAvg speedWind from/ knotsBaromVisibWave heightAir tempDewpointWater temp
2015-Feb-22 22:25N 09°53' E 123°40'1516.5
2015-Feb-22 21:31N 09°39' E 123°35'1515.7
2015-Feb-22 20:33N 09°25' E 123°29'1616.4
2015-Feb-22 19:33N 09°10' E 123°22'3515.6
2015-Feb-22 17:21N 08°47' E 122°56'1516.3
2015-Feb-22 16:26N 08°39' E 122°43'1516.9
2015-Feb-22 15:33N 08°30' E 122°31'3517.3
2015-Feb-22 13:33N 08°07' E 122°05'  
2015-Feb-15 05:32N 01°16' E 104°16'1817.9
2015-Feb-15 04:33N 01°14' E 103°59'  
Track history (hours):
 
Tides and Currents Weather Stations Pressure Air Temp Water Temp Dewpoint Dewpoint Depression Visibility Wind Speed Wind Dir Waves Ship Positions

Norwegian Crown

Operator: Norwegian Cruise Line

Last reported at 2015-Feb-22 22:25 UTC. Time now 2015-Feb-27 13:15 UTC.
Position N 09°53' E 123°40'.

Type: Passenger vessel. MMSI: 308785000.

Date/timePositionNaut miles runAvg speedWind from/ knotsBaromVisibWave heightAir tempDewpointWater temp
2015-Feb-22 22:25N 09°53' E 123°40'1516.5
2015-Feb-22 21:31N 09°39' E 123°35'1515.7
2015-Feb-22 20:33N 09°25' E 123°29'1616.4
2015-Feb-22 19:33N 09°10' E 123°22'3515.6
2015-Feb-22 17:21N 08°47' E 122°56'1516.3
2015-Feb-22 16:26N 08°39' E 122°43'1516.9
2015-Feb-22 15:33N 08°30' E 122°31'3517.3
2015-Feb-22 13:33N 08°07' E 122°05'  
2015-Feb-15 05:32N 01°16' E 104°16'1817.9
2015-Feb-15 04:33N 01°14' E 103°59'  

Dump ship's entire track history